sensor_id;sensor_type;location;lat;lon;timestamp;temperature;humidity
20091;DHT22;10205;49.678;6.560;2023-09-08T00:00:26;26.90;49.90
20091;DHT22;10205;49.678;6.560;2023-09-08T00:02:54;26.90;49.90
20091;DHT22;10205;49.678;6.560;2023-09-08T00:05:21;26.80;49.90
20091;DHT22;10205;49.678;6.560;2023-09-08T00:07:48;26.80;50.00
20091;DHT22;10205;49.678;6.560;2023-09-08T00:10:17;26.80;50.00
20091;DHT22;10205;49.678;6.560;2023-09-08T00:12:45;26.70;50.10
20091;DHT22;10205;49.678;6.560;2023-09-08T00:15:12;26.70;50.10
20091;DHT22;10205;49.678;6.560;2023-09-08T00:17:39;26.60;50.10
20091;DHT22;10205;49.678;6.560;2023-09-08T00:20:08;26.60;50.20
20091;DHT22;10205;49.678;6.560;2023-09-08T00:22:35;26.60;50.20
20091;DHT22;10205;49.678;6.560;2023-09-08T00:25:05;26.50;50.20
20091;DHT22;10205;49.678;6.560;2023-09-08T00:27:34;26.50;50.30
20091;DHT22;10205;49.678;6.560;2023-09-08T00:30:01;26.40;50.30
20091;DHT22;10205;49.678;6.560;2023-09-08T00:32:29;26.40;50.40
20091;DHT22;10205;49.678;6.560;2023-09-08T00:34:56;26.30;50.30
20091;DHT22;10205;49.678;6.560;2023-09-08T00:37:23;26.30;50.40
20091;DHT22;10205;49.678;6.560;2023-09-08T00:39:50;26.30;50.50
20091;DHT22;10205;49.678;6.560;2023-09-08T00:42:17;26.20;50.50
20091;DHT22;10205;49.678;6.560;2023-09-08T00:44:46;26.20;50.50
20091;DHT22;10205;49.678;6.560;2023-09-08T00:47:13;26.10;50.60
20091;DHT22;10205;49.678;6.560;2023-09-08T00:49:40;26.10;50.60
20091;DHT22;10205;49.678;6.560;2023-09-08T00:52:08;26.00;50.60
20091;DHT22;10205;49.678;6.560;2023-09-08T00:54:36;26.00;50.70
20091;DHT22;10205;49.678;6.560;2023-09-08T00:57:04;25.90;50.60
20091;DHT22;10205;49.678;6.560;2023-09-08T00:59:33;25.90;50.70
20091;DHT22;10205;49.678;6.560;2023-09-08T01:02:04;25.90;50.80
20091;DHT22;10205;49.678;6.560;2023-09-08T01:04:31;25.80;50.80
20091;DHT22;10205;49.678;6.560;2023-09-08T01:06:59;25.80;50.80
20091;DHT22;10205;49.678;6.560;2023-09-08T01:09:28;25.70;50.90
20091;DHT22;10205;49.678;6.560;2023-09-08T01:11:55;25.70;50.90
20091;DHT22;10205;49.678;6.560;2023-09-08T01:14:27;25.60;50.90
20091;DHT22;10205;49.678;6.560;2023-09-08T01:16:55;25.60;51.00
20091;DHT22;10205;49.678;6.560;2023-09-08T01:19:24;25.60;51.00
20091;DHT22;10205;49.678;6.560;2023-09-08T01:25:12;25.50;51.40
20091;DHT22;10205;49.678;6.560;2023-09-08T01:27:47;25.40;51.30
20091;DHT22;10205;49.678;6.560;2023-09-08T01:30:16;25.40;51.20
20091;DHT22;10205;49.678;6.560;2023-09-08T01:32:45;25.40;51.10
20091;DHT22;10205;49.678;6.560;2023-09-08T01:35:13;25.30;51.20
20091;DHT22;10205;49.678;6.560;2023-09-08T01:37:41;25.30;51.30
20091;DHT22;10205;49.678;6.560;2023-09-08T01:40:13;25.20;51.20
20091;DHT22;10205;49.678;6.560;2023-09-08T01:42:41;25.20;51.40
20091;DHT22;10205;49.678;6.560;2023-09-08T01:45:09;25.10;51.30
20091;DHT22;10205;49.678;6.560;2023-09-08T01:47:36;25.10;51.30
20091;DHT22;10205;49.678;6.560;2023-09-08T01:50:05;25.10;51.40
20091;DHT22;10205;49.678;6.560;2023-09-08T01:52:32;25.00;51.40
20091;DHT22;10205;49.678;6.560;2023-09-08T01:55:00;25.00;51.40
20091;DHT22;10205;49.678;6.560;2023-09-08T01:57:28;25.00;51.50
20091;DHT22;10205;49.678;6.560;2023-09-08T01:59:55;24.90;51.60
20091;DHT22;10205;49.678;6.560;2023-09-08T02:02:22;24.90;51.60
20091;DHT22;10205;49.678;6.560;2023-09-08T02:04:49;24.80;51.60
20091;DHT22;10205;49.678;6.560;2023-09-08T02:07:16;24.80;51.60
20091;DHT22;10205;49.678;6.560;2023-09-08T02:09:44;24.80;51.70
20091;DHT22;10205;49.678;6.560;2023-09-08T02:12:12;24.70;51.70
20091;DHT22;10205;49.678;6.560;2023-09-08T02:14:40;24.70;51.70
20091;DHT22;10205;49.678;6.560;2023-09-08T02:17:07;24.70;51.80
20091;DHT22;10205;49.678;6.560;2023-09-08T02:19:35;24.60;51.80
20091;DHT22;10205;49.678;6.560;2023-09-08T02:22:03;24.60;51.80
20091;DHT22;10205;49.678;6.560;2023-09-08T02:24:30;24.60;51.90
20091;DHT22;10205;49.678;6.560;2023-09-08T02:26:57;24.50;51.80
20091;DHT22;10205;49.678;6.560;2023-09-08T02:29:24;24.50;51.90
20091;DHT22;10205;49.678;6.560;2023-09-08T02:31:52;24.50;51.90
20091;DHT22;10205;49.678;6.560;2023-09-08T02:34:20;24.40;52.00
20091;DHT22;10205;49.678;6.560;2023-09-08T02:36:47;24.40;52.00
20091;DHT22;10205;49.678;6.560;2023-09-08T02:39:16;24.40;52.10
20091;DHT22;10205;49.678;6.560;2023-09-08T02:41:43;24.30;52.00
20091;DHT22;10205;49.678;6.560;2023-09-08T02:44:11;24.30;52.10
20091;DHT22;10205;49.678;6.560;2023-09-08T02:46:38;24.30;52.10
20091;DHT22;10205;49.678;6.560;2023-09-08T02:49:07;24.30;52.20
20091;DHT22;10205;49.678;6.560;2023-09-08T02:51:34;24.20;52.20
20091;DHT22;10205;49.678;6.560;2023-09-08T02:54:01;24.20;52.20
20091;DHT22;10205;49.678;6.560;2023-09-08T02:56:28;24.10;52.20
20091;DHT22;10205;49.678;6.560;2023-09-08T02:58:55;24.10;52.30
20091;DHT22;10205;49.678;6.560;2023-09-08T03:01:22;24.10;52.30
20091;DHT22;10205;49.678;6.560;2023-09-08T03:03:50;24.00;52.30
20091;DHT22;10205;49.678;6.560;2023-09-08T03:06:19;24.00;52.30
20091;DHT22;10205;49.678;6.560;2023-09-08T03:08:47;24.00;53.10
20091;DHT22;10205;49.678;6.560;2023-09-08T03:11:15;24.00;52.40
20091;DHT22;10205;49.678;6.560;2023-09-08T03:13:42;23.90;53.00
20091;DHT22;10205;49.678;6.560;2023-09-08T03:16:09;23.90;52.40
20091;DHT22;10205;49.678;6.560;2023-09-08T03:18:37;23.90;52.50
20091;DHT22;10205;49.678;6.560;2023-09-08T03:21:05;23.90;52.50
20091;DHT22;10205;49.678;6.560;2023-09-08T03:23:38;23.80;52.50
20091;DHT22;10205;49.678;6.560;2023-09-08T03:26:08;23.80;52.60
20091;DHT22;10205;49.678;6.560;2023-09-08T03:28:37;23.80;52.60
20091;DHT22;10205;49.678;6.560;2023-09-08T03:31:05;23.70;52.50
20091;DHT22;10205;49.678;6.560;2023-09-08T03:33:32;23.70;52.60
20091;DHT22;10205;49.678;6.560;2023-09-08T03:36:00;23.70;52.60
20091;DHT22;10205;49.678;6.560;2023-09-08T03:38:29;23.70;52.70
20091;DHT22;10205;49.678;6.560;2023-09-08T03:40:58;23.60;52.70
20091;DHT22;10205;49.678;6.560;2023-09-08T03:43:25;23.60;52.80
20091;DHT22;10205;49.678;6.560;2023-09-08T03:45:53;23.60;52.70
20091;DHT22;10205;49.678;6.560;2023-09-08T03:48:20;23.50;52.70
20091;DHT22;10205;49.678;6.560;2023-09-08T03:50:47;23.50;52.70
20091;DHT22;10205;49.678;6.560;2023-09-08T03:53:14;23.50;52.80
20091;DHT22;10205;49.678;6.560;2023-09-08T03:55:41;23.50;52.80
20091;DHT22;10205;49.678;6.560;2023-09-08T03:58:09;23.40;52.80
20091;DHT22;10205;49.678;6.560;2023-09-08T04:00:36;23.40;52.90
20091;DHT22;10205;49.678;6.560;2023-09-08T04:03:04;23.40;52.90
20091;DHT22;10205;49.678;6.560;2023-09-08T04:05:31;23.30;52.90
20091;DHT22;10205;49.678;6.560;2023-09-08T04:07:58;23.30;52.90
20091;DHT22;10205;49.678;6.560;2023-09-08T04:10:26;23.30;52.90
20091;DHT22;10205;49.678;6.560;2023-09-08T04:12:54;23.20;52.90
20091;DHT22;10205;49.678;6.560;2023-09-08T04:15:23;23.20;53.00
20091;DHT22;10205;49.678;6.560;2023-09-08T04:17:50;23.20;53.10
20091;DHT22;10205;49.678;6.560;2023-09-08T04:20:18;23.20;53.10
20091;DHT22;10205;49.678;6.560;2023-09-08T04:22:45;23.10;53.10
20091;DHT22;10205;49.678;6.560;2023-09-08T04:25:13;23.10;53.10
20091;DHT22;10205;49.678;6.560;2023-09-08T04:27:40;23.10;53.10
20091;DHT22;10205;49.678;6.560;2023-09-08T04:30:08;23.10;53.10
20091;DHT22;10205;49.678;6.560;2023-09-08T04:32:36;23.00;53.10
20091;DHT22;10205;49.678;6.560;2023-09-08T04:35:05;23.00;53.20
20091;DHT22;10205;49.678;6.560;2023-09-08T04:37:32;23.00;53.20
20091;DHT22;10205;49.678;6.560;2023-09-08T04:39:59;22.90;53.20
20091;DHT22;10205;49.678;6.560;2023-09-08T04:42:27;22.90;53.20
20091;DHT22;10205;49.678;6.560;2023-09-08T04:44:55;22.90;53.20
20091;DHT22;10205;49.678;6.560;2023-09-08T04:47:23;22.90;53.30
20091;DHT22;10205;49.678;6.560;2023-09-08T04:49:52;22.80;53.30
20091;DHT22;10205;49.678;6.560;2023-09-08T04:52:19;22.80;53.40
20091;DHT22;10205;49.678;6.560;2023-09-08T04:54:47;22.80;53.40
20091;DHT22;10205;49.678;6.560;2023-09-08T04:57:14;22.80;53.40
20091;DHT22;10205;49.678;6.560;2023-09-08T04:59:41;22.70;53.40
20091;DHT22;10205;49.678;6.560;2023-09-08T05:02:10;22.70;53.40
20091;DHT22;10205;49.678;6.560;2023-09-08T05:04:37;22.70;53.50
20091;DHT22;10205;49.678;6.560;2023-09-08T05:07:05;22.70;53.50
20091;DHT22;10205;49.678;6.560;2023-09-08T05:09:33;22.60;53.50
20091;DHT22;10205;49.678;6.560;2023-09-08T05:12:00;22.60;53.50
20091;DHT22;10205;49.678;6.560;2023-09-08T05:14:27;22.60;53.50
20091;DHT22;10205;49.678;6.560;2023-09-08T05:16:54;22.50;53.60
20091;DHT22;10205;49.678;6.560;2023-09-08T05:19:22;22.50;53.60
20091;DHT22;10205;49.678;6.560;2023-09-08T05:21:51;22.50;53.60
20091;DHT22;10205;49.678;6.560;2023-09-08T05:24:22;22.50;53.70
20091;DHT22;10205;49.678;6.560;2023-09-08T05:26:51;22.40;53.70
20091;DHT22;10205;49.678;6.560;2023-09-08T05:29:18;22.40;53.60
20091;DHT22;10205;49.678;6.560;2023-09-08T05:31:45;22.40;53.70
20091;DHT22;10205;49.678;6.560;2023-09-08T05:34:12;22.40;53.80
20091;DHT22;10205;49.678;6.560;2023-09-08T05:36:39;22.30;53.70
20091;DHT22;10205;49.678;6.560;2023-09-08T05:39:08;22.30;53.80
20091;DHT22;10205;49.678;6.560;2023-09-08T05:41:37;22.30;53.80
20091;DHT22;10205;49.678;6.560;2023-09-08T05:44:04;22.30;53.90
20091;DHT22;10205;49.678;6.560;2023-09-08T05:46:31;22.30;53.90
20091;DHT22;10205;49.678;6.560;2023-09-08T05:48:59;22.20;53.90
20091;DHT22;10205;49.678;6.560;2023-09-08T05:51:26;22.20;53.90
20091;DHT22;10205;49.678;6.560;2023-09-08T05:53:53;22.20;54.00
20091;DHT22;10205;49.678;6.560;2023-09-08T05:56:24;22.20;54.00
20091;DHT22;10205;49.678;6.560;2023-09-08T05:58:54;22.20;54.10
20091;DHT22;10205;49.678;6.560;2023-09-08T06:01:21;22.10;54.10
20091;DHT22;10205;49.678;6.560;2023-09-08T06:03:49;22.10;54.20
20091;DHT22;10205;49.678;6.560;2023-09-08T06:06:16;22.10;54.40
20091;DHT22;10205;49.678;6.560;2023-09-08T06:08:44;22.10;54.40
20091;DHT22;10205;49.678;6.560;2023-09-08T06:11:11;22.10;54.40
20091;DHT22;10205;49.678;6.560;2023-09-08T06:13:38;22.00;54.50
20091;DHT22;10205;49.678;6.560;2023-09-08T06:16:07;22.00;54.50
20091;DHT22;10205;49.678;6.560;2023-09-08T06:18:34;21.90;54.70
20091;DHT22;10205;49.678;6.560;2023-09-08T06:21:06;21.90;54.60
20091;DHT22;10205;49.678;6.560;2023-09-08T06:23:33;21.90;54.70
20091;DHT22;10205;49.678;6.560;2023-09-08T06:26:01;21.90;54.80
20091;DHT22;10205;49.678;6.560;2023-09-08T06:28:28;21.90;54.80
20091;DHT22;10205;49.678;6.560;2023-09-08T06:30:56;21.80;54.80
20091;DHT22;10205;49.678;6.560;2023-09-08T06:33:24;21.80;54.80
20091;DHT22;10205;49.678;6.560;2023-09-08T06:35:51;21.80;54.90
20091;DHT22;10205;49.678;6.560;2023-09-08T06:38:19;21.80;55.00
20091;DHT22;10205;49.678;6.560;2023-09-08T06:40:46;21.70;54.90
20091;DHT22;10205;49.678;6.560;2023-09-08T06:43:15;21.70;55.00
20091;DHT22;10205;49.678;6.560;2023-09-08T06:45:42;21.70;55.10
20091;DHT22;10205;49.678;6.560;2023-09-08T06:48:09;21.70;55.70
20091;DHT22;10205;49.678;6.560;2023-09-08T06:50:38;21.70;55.20
20091;DHT22;10205;49.678;6.560;2023-09-08T06:53:05;21.70;55.20
20091;DHT22;10205;49.678;6.560;2023-09-08T06:55:32;21.70;55.20
20091;DHT22;10205;49.678;6.560;2023-09-08T06:57:59;21.70;55.30
20091;DHT22;10205;49.678;6.560;2023-09-08T07:00:26;21.60;55.40
20091;DHT22;10205;49.678;6.560;2023-09-08T07:02:53;21.60;55.40
20091;DHT22;10205;49.678;6.560;2023-09-08T07:05:20;21.60;55.50
20091;DHT22;10205;49.678;6.560;2023-09-08T07:07:49;21.60;55.50
20091;DHT22;10205;49.678;6.560;2023-09-08T07:10:16;21.60;56.20
20091;DHT22;10205;49.678;6.560;2023-09-08T07:12:44;21.60;55.80
20091;DHT22;10205;49.678;6.560;2023-09-08T07:15:12;21.60;55.80
20091;DHT22;10205;49.678;6.560;2023-09-08T07:17:40;21.60;55.80
20091;DHT22;10205;49.678;6.560;2023-09-08T07:20:08;21.60;55.90
20091;DHT22;10205;49.678;6.560;2023-09-08T07:22:36;21.60;56.00
20091;DHT22;10205;49.678;6.560;2023-09-08T07:25:07;21.60;56.00
20091;DHT22;10205;49.678;6.560;2023-09-08T07:27:35;21.60;56.30
20091;DHT22;10205;49.678;6.560;2023-09-08T07:30:03;21.70;56.20
20091;DHT22;10205;49.678;6.560;2023-09-08T07:32:31;21.70;56.30
20091;DHT22;10205;49.678;6.560;2023-09-08T07:34:58;21.70;56.30
20091;DHT22;10205;49.678;6.560;2023-09-08T07:37:25;21.70;56.30
20091;DHT22;10205;49.678;6.560;2023-09-08T07:39:52;21.80;56.30
20091;DHT22;10205;49.678;6.560;2023-09-08T07:42:22;21.80;56.30
20091;DHT22;10205;49.678;6.560;2023-09-08T07:44:51;21.90;56.40
20091;DHT22;10205;49.678;6.560;2023-09-08T07:47:18;21.90;56.30
20091;DHT22;10205;49.678;6.560;2023-09-08T07:49:46;21.90;56.30
20091;DHT22;10205;49.678;6.560;2023-09-08T07:52:14;22.00;56.30
20091;DHT22;10205;49.678;6.560;2023-09-08T07:54:41;22.00;56.30
20091;DHT22;10205;49.678;6.560;2023-09-08T07:57:09;22.10;56.40
20091;DHT22;10205;49.678;6.560;2023-09-08T07:59:37;22.10;56.30
20091;DHT22;10205;49.678;6.560;2023-09-08T08:02:04;22.20;56.40
20091;DHT22;10205;49.678;6.560;2023-09-08T08:04:31;22.20;56.30
20091;DHT22;10205;49.678;6.560;2023-09-08T08:06:58;22.30;57.00
20091;DHT22;10205;49.678;6.560;2023-09-08T08:09:25;22.30;56.40
20091;DHT22;10205;49.678;6.560;2023-09-08T08:11:53;22.40;56.40
20091;DHT22;10205;49.678;6.560;2023-09-08T08:14:21;22.40;56.30
20091;DHT22;10205;49.678;6.560;2023-09-08T08:16:50;22.50;56.30
20091;DHT22;10205;49.678;6.560;2023-09-08T08:19:17;22.60;56.40
20091;DHT22;10205;49.678;6.560;2023-09-08T08:21:44;22.60;56.30
20091;DHT22;10205;49.678;6.560;2023-09-08T08:24:11;22.70;56.30
20091;DHT22;10205;49.678;6.560;2023-09-08T08:26:39;22.80;56.30
20091;DHT22;10205;49.678;6.560;2023-09-08T08:29:06;22.80;56.30
20091;DHT22;10205;49.678;6.560;2023-09-08T08:31:33;22.90;56.30
20091;DHT22;10205;49.678;6.560;2023-09-08T08:34:02;23.00;56.30
20091;DHT22;10205;49.678;6.560;2023-09-08T08:36:29;23.10;56.30
20091;DHT22;10205;49.678;6.560;2023-09-08T08:38:56;23.10;56.10
20091;DHT22;10205;49.678;6.560;2023-09-08T08:41:24;23.20;56.30
20091;DHT22;10205;49.678;6.560;2023-09-08T08:43:51;23.20;56.10
20091;DHT22;10205;49.678;6.560;2023-09-08T08:46:21;23.30;56.20
20091;DHT22;10205;49.678;6.560;2023-09-08T08:48:50;23.40;56.40
20091;DHT22;10205;49.678;6.560;2023-09-08T08:51:23;23.50;56.20
20091;DHT22;10205;49.678;6.560;2023-09-08T08:53:51;23.60;56.00
20091;DHT22;10205;49.678;6.560;2023-09-08T08:56:19;23.60;55.90
20091;DHT22;10205;49.678;6.560;2023-09-08T08:58:48;23.80;56.00
20091;DHT22;10205;49.678;6.560;2023-09-08T09:01:17;23.80;55.80
20091;DHT22;10205;49.678;6.560;2023-09-08T09:03:48;23.90;55.80
20091;DHT22;10205;49.678;6.560;2023-09-08T09:06:16;24.00;55.80
20091;DHT22;10205;49.678;6.560;2023-09-08T09:08:45;24.10;55.60
20091;DHT22;10205;49.678;6.560;2023-09-08T09:11:12;24.20;55.90
20091;DHT22;10205;49.678;6.560;2023-09-08T09:13:40;24.20;55.60
20091;DHT22;10205;49.678;6.560;2023-09-08T09:16:07;24.40;55.50
20091;DHT22;10205;49.678;6.560;2023-09-08T09:18:53;24.40;55.40
20091;DHT22;10205;49.678;6.560;2023-09-08T09:21:22;24.50;55.10
20091;DHT22;10205;49.678;6.560;2023-09-08T09:23:51;24.60;55.00
20091;DHT22;10205;49.678;6.560;2023-09-08T09:26:26;24.70;55.00
20091;DHT22;10205;49.678;6.560;2023-09-08T09:28:53;24.80;55.00
20091;DHT22;10205;49.678;6.560;2023-09-08T09:31:24;24.90;55.00
20091;DHT22;10205;49.678;6.560;2023-09-08T09:34:01;25.00;55.20
20091;DHT22;10205;49.678;6.560;2023-09-08T09:36:31;25.10;54.90
20091;DHT22;10205;49.678;6.560;2023-09-08T09:39:00;25.20;54.70
20091;DHT22;10205;49.678;6.560;2023-09-08T09:41:29;25.30;54.50
20091;DHT22;10205;49.678;6.560;2023-09-08T09:43:56;25.40;54.40
20091;DHT22;10205;49.678;6.560;2023-09-08T09:46:24;25.50;54.40
20091;DHT22;10205;49.678;6.560;2023-09-08T09:48:55;25.60;54.30
20091;DHT22;10205;49.678;6.560;2023-09-08T09:51:23;25.70;54.30
20091;DHT22;10205;49.678;6.560;2023-09-08T09:53:50;25.90;54.20
20091;DHT22;10205;49.678;6.560;2023-09-08T09:56:20;25.90;54.10
20091;DHT22;10205;49.678;6.560;2023-09-08T09:58:49;26.00;53.90
20091;DHT22;10205;49.678;6.560;2023-09-08T10:01:20;26.10;53.80
20091;DHT22;10205;49.678;6.560;2023-09-08T10:03:49;26.30;53.80
20091;DHT22;10205;49.678;6.560;2023-09-08T10:06:19;26.40;53.80
20091;DHT22;10205;49.678;6.560;2023-09-08T10:08:47;26.40;53.60
20091;DHT22;10205;49.678;6.560;2023-09-08T10:11:16;26.60;53.90
20091;DHT22;10205;49.678;6.560;2023-09-08T10:13:51;26.70;53.80
20091;DHT22;10205;49.678;6.560;2023-09-08T10:16:22;26.80;53.60
20091;DHT22;10205;49.678;6.560;2023-09-08T10:18:53;26.90;54.30
20091;DHT22;10205;49.678;6.560;2023-09-08T10:21:26;27.00;53.40
20091;DHT22;10205;49.678;6.560;2023-09-08T10:24:02;27.10;53.00
20091;DHT22;10205;49.678;6.560;2023-09-08T10:26:40;27.20;53.00
20091;DHT22;10205;49.678;6.560;2023-09-08T10:29:12;27.30;52.90
20091;DHT22;10205;49.678;6.560;2023-09-08T10:31:40;27.40;53.00
20091;DHT22;10205;49.678;6.560;2023-09-08T10:34:09;27.50;52.90
20091;DHT22;10205;49.678;6.560;2023-09-08T10:36:37;27.70;52.80
20091;DHT22;10205;49.678;6.560;2023-09-08T10:39:27;27.80;52.60
20091;DHT22;10205;49.678;6.560;2023-09-08T10:42:21;27.90;52.40
20091;DHT22;10205;49.678;6.560;2023-09-08T10:45:01;28.00;52.40
20091;DHT22;10205;49.678;6.560;2023-09-08T10:47:54;28.10;52.40
20091;DHT22;10205;49.678;6.560;2023-09-08T10:50:29;28.20;52.30
20091;DHT22;10205;49.678;6.560;2023-09-08T10:53:15;28.40;52.00
20091;DHT22;10205;49.678;6.560;2023-09-08T10:55:44;28.40;51.70
20091;DHT22;10205;49.678;6.560;2023-09-08T10:58:22;28.50;51.70
20091;DHT22;10205;49.678;6.560;2023-09-08T11:00:59;28.70;51.70
20091;DHT22;10205;49.678;6.560;2023-09-08T11:03:28;28.80;51.70
20091;DHT22;10205;49.678;6.560;2023-09-08T11:06:11;28.90;51.80
20091;DHT22;10205;49.678;6.560;2023-09-08T11:08:41;29.00;51.70
20091;DHT22;10205;49.678;6.560;2023-09-08T11:11:10;29.10;51.60
20091;DHT22;10205;49.678;6.560;2023-09-08T11:13:39;29.20;51.40
20091;DHT22;10205;49.678;6.560;2023-09-08T11:16:07;29.30;51.30
20091;DHT22;10205;49.678;6.560;2023-09-08T11:18:34;29.40;51.40
20091;DHT22;10205;49.678;6.560;2023-09-08T11:21:04;29.50;51.30
20091;DHT22;10205;49.678;6.560;2023-09-08T11:23:35;29.60;51.10
20091;DHT22;10205;49.678;6.560;2023-09-08T11:26:03;29.70;51.20
20091;DHT22;10205;49.678;6.560;2023-09-08T11:28:32;29.80;51.10
20091;DHT22;10205;49.678;6.560;2023-09-08T11:31:01;29.80;50.90
20091;DHT22;10205;49.678;6.560;2023-09-08T11:33:33;29.90;50.70
20091;DHT22;10205;49.678;6.560;2023-09-08T11:36:11;30.00;50.50
20091;DHT22;10205;49.678;6.560;2023-09-08T11:38:43;30.10;50.40
20091;DHT22;10205;49.678;6.560;2023-09-08T11:41:11;30.20;50.30
20091;DHT22;10205;49.678;6.560;2023-09-08T11:43:38;30.30;50.20
20091;DHT22;10205;49.678;6.560;2023-09-08T11:46:07;30.30;50.20
20091;DHT22;10205;49.678;6.560;2023-09-08T11:48:36;30.40;50.00
20091;DHT22;10205;49.678;6.560;2023-09-08T11:51:06;30.50;50.10
20091;DHT22;10205;49.678;6.560;2023-09-08T11:53:34;30.60;49.90
20091;DHT22;10205;49.678;6.560;2023-09-08T11:56:04;30.70;50.10
20091;DHT22;10205;49.678;6.560;2023-09-08T11:58:31;30.70;49.80
20091;DHT22;10205;49.678;6.560;2023-09-08T12:00:59;30.90;49.80
20091;DHT22;10205;49.678;6.560;2023-09-08T12:03:28;30.90;49.60
20091;DHT22;10205;49.678;6.560;2023-09-08T12:05:56;31.00;50.20
20091;DHT22;10205;49.678;6.560;2023-09-08T12:08:25;31.10;49.60
20091;DHT22;10205;49.678;6.560;2023-09-08T12:10:53;31.20;49.50
20091;DHT22;10205;49.678;6.560;2023-09-08T12:13:22;31.20;49.20
20091;DHT22;10205;49.678;6.560;2023-09-08T12:15:49;31.40;49.10
20091;DHT22;10205;49.678;6.560;2023-09-08T12:18:17;31.40;49.20
20091;DHT22;10205;49.678;6.560;2023-09-08T12:20:45;31.50;49.00
20091;DHT22;10205;49.678;6.560;2023-09-08T12:23:17;31.50;48.80
20091;DHT22;10205;49.678;6.560;2023-09-08T12:25:47;31.60;48.40
20091;DHT22;10205;49.678;6.560;2023-09-08T12:28:16;31.70;48.60
20091;DHT22;10205;49.678;6.560;2023-09-08T12:30:45;31.80;48.50
20091;DHT22;10205;49.678;6.560;2023-09-08T12:33:14;31.90;48.50
20091;DHT22;10205;49.678;6.560;2023-09-08T12:35:44;31.90;48.30
20091;DHT22;10205;49.678;6.560;2023-09-08T12:38:13;32.00;48.10
20091;DHT22;10205;49.678;6.560;2023-09-08T12:40:41;32.10;48.10
20091;DHT22;10205;49.678;6.560;2023-09-08T12:43:08;32.20;47.90
20091;DHT22;10205;49.678;6.560;2023-09-08T12:45:37;32.20;47.70
20091;DHT22;10205;49.678;6.560;2023-09-08T12:48:04;32.30;47.50
20091;DHT22;10205;49.678;6.560;2023-09-08T12:50:33;32.30;47.60
20091;DHT22;10205;49.678;6.560;2023-09-08T12:53:01;32.40;47.70
20091;DHT22;10205;49.678;6.560;2023-09-08T12:55:28;32.50;47.60
20091;DHT22;10205;49.678;6.560;2023-09-08T12:57:55;32.50;47.50
20091;DHT22;10205;49.678;6.560;2023-09-08T13:00:23;32.60;47.60
20091;DHT22;10205;49.678;6.560;2023-09-08T13:02:50;32.60;47.20
20091;DHT22;10205;49.678;6.560;2023-09-08T13:05:18;32.70;47.30
20091;DHT22;10205;49.678;6.560;2023-09-08T13:07:45;32.70;47.10
20091;DHT22;10205;49.678;6.560;2023-09-08T13:10:14;32.80;47.10
20091;DHT22;10205;49.678;6.560;2023-09-08T13:12:42;32.80;46.90
20091;DHT22;10205;49.678;6.560;2023-09-08T13:15:10;32.90;46.80
20091;DHT22;10205;49.678;6.560;2023-09-08T13:17:37;33.00;46.90
20091;DHT22;10205;49.678;6.560;2023-09-08T13:20:07;33.00;46.80
20091;DHT22;10205;49.678;6.560;2023-09-08T13:22:34;33.00;46.60
20091;DHT22;10205;49.678;6.560;2023-09-08T13:25:03;33.00;46.50
20091;DHT22;10205;49.678;6.560;2023-09-08T13:27:32;33.10;46.50
20091;DHT22;10205;49.678;6.560;2023-09-08T13:30:08;33.20;46.40
20091;DHT22;10205;49.678;6.560;2023-09-08T13:32:36;33.20;46.10
20091;DHT22;10205;49.678;6.560;2023-09-08T13:35:04;33.20;46.20
20091;DHT22;10205;49.678;6.560;2023-09-08T13:37:32;33.20;46.20
20091;DHT22;10205;49.678;6.560;2023-09-08T13:40:00;33.30;45.90
20091;DHT22;10205;49.678;6.560;2023-09-08T13:42:28;33.30;46.00
20091;DHT22;10205;49.678;6.560;2023-09-08T13:44:56;33.30;45.90
20091;DHT22;10205;49.678;6.560;2023-09-08T13:47:23;33.40;45.90
20091;DHT22;10205;49.678;6.560;2023-09-08T13:49:51;33.40;45.70
20091;DHT22;10205;49.678;6.560;2023-09-08T13:52:18;33.40;45.70
20091;DHT22;10205;49.678;6.560;2023-09-08T13:54:46;33.40;45.60
20091;DHT22;10205;49.678;6.560;2023-09-08T13:57:13;33.40;45.30
20091;DHT22;10205;49.678;6.560;2023-09-08T13:59:40;33.40;46.10
20091;DHT22;10205;49.678;6.560;2023-09-08T14:02:09;33.40;45.40
20091;DHT22;10205;49.678;6.560;2023-09-08T14:04:36;33.50;45.30
20091;DHT22;10205;49.678;6.560;2023-09-08T14:07:05;33.50;45.50
20091;DHT22;10205;49.678;6.560;2023-09-08T14:09:32;33.50;45.00
20091;DHT22;10205;49.678;6.560;2023-09-08T14:12:00;33.50;45.10
20091;DHT22;10205;49.678;6.560;2023-09-08T14:14:27;33.50;45.20
20091;DHT22;10205;49.678;6.560;2023-09-08T14:16:54;33.50;44.60
20091;DHT22;10205;49.678;6.560;2023-09-08T14:19:22;33.50;44.30
20091;DHT22;10205;49.678;6.560;2023-09-08T14:21:48;33.50;44.20
20091;DHT22;10205;49.678;6.560;2023-09-08T14:24:16;33.50;44.50
20091;DHT22;10205;49.678;6.560;2023-09-08T14:26:43;33.50;44.40
20091;DHT22;10205;49.678;6.560;2023-09-08T14:29:10;33.50;44.30
20091;DHT22;10205;49.678;6.560;2023-09-08T14:31:37;33.50;44.20
20091;DHT22;10205;49.678;6.560;2023-09-08T14:34:04;33.50;43.90
20091;DHT22;10205;49.678;6.560;2023-09-08T14:36:33;33.50;44.00
20091;DHT22;10205;49.678;6.560;2023-09-08T14:39:01;33.50;44.10
20091;DHT22;10205;49.678;6.560;2023-09-08T14:41:29;33.50;44.10
20091;DHT22;10205;49.678;6.560;2023-09-08T14:43:56;33.50;44.10
20091;DHT22;10205;49.678;6.560;2023-09-08T14:46:24;33.50;44.30
20091;DHT22;10205;49.678;6.560;2023-09-08T14:48:51;33.50;44.00
20091;DHT22;10205;49.678;6.560;2023-09-08T14:51:18;33.50;43.80
20091;DHT22;10205;49.678;6.560;2023-09-08T14:53:47;33.50;43.40
20091;DHT22;10205;49.678;6.560;2023-09-08T14:56:14;33.50;43.60
20091;DHT22;10205;49.678;6.560;2023-09-08T14:58:41;33.50;43.80
20091;DHT22;10205;49.678;6.560;2023-09-08T15:01:08;33.50;42.70
20091;DHT22;10205;49.678;6.560;2023-09-08T15:03:37;33.50;42.70
20091;DHT22;10205;49.678;6.560;2023-09-08T15:06:05;33.50;41.70
20091;DHT22;10205;49.678;6.560;2023-09-08T15:08:34;33.40;41.60
20091;DHT22;10205;49.678;6.560;2023-09-08T15:11:03;33.40;41.90
20091;DHT22;10205;49.678;6.560;2023-09-08T15:13:30;33.40;41.90
20091;DHT22;10205;49.678;6.560;2023-09-08T15:15:58;33.40;42.20
20091;DHT22;10205;49.678;6.560;2023-09-08T15:18:25;33.40;42.40
20091;DHT22;10205;49.678;6.560;2023-09-08T15:20:53;33.40;42.40
20091;DHT22;10205;49.678;6.560;2023-09-08T15:23:21;33.40;42.30
20091;DHT22;10205;49.678;6.560;2023-09-08T15:25:51;33.40;42.60
20091;DHT22;10205;49.678;6.560;2023-09-08T15:28:23;33.40;41.90
20091;DHT22;10205;49.678;6.560;2023-09-08T15:30:52;33.40;42.00
20091;DHT22;10205;49.678;6.560;2023-09-08T15:33:20;33.40;42.40
20091;DHT22;10205;49.678;6.560;2023-09-08T15:35:49;33.40;42.60
20091;DHT22;10205;49.678;6.560;2023-09-08T15:38:17;33.50;42.20
20091;DHT22;10205;49.678;6.560;2023-09-08T15:41:13;33.50;42.60